createdAt,value
2023-05-25T00:02:04.693Z,16.18
2023-05-25T00:04:34.629Z,16.12
2023-05-25T00:07:02.822Z,16.01
2023-05-25T00:09:30.906Z,16.15
2023-05-25T00:11:59.896Z,16.17
2023-05-25T00:14:27.968Z,16.26
2023-05-25T00:16:56.015Z,16.30
2023-05-25T00:19:26.107Z,16.39
2023-05-25T00:21:54.763Z,16.08
2023-05-25T00:24:22.745Z,16.03
2023-05-25T00:26:50.757Z,16.06
2023-05-25T00:29:18.695Z,16.11
2023-05-25T00:31:46.708Z,16.10
2023-05-25T00:34:14.610Z,16.27
2023-05-25T00:36:44.244Z,16.27
2023-05-25T00:39:12.173Z,16.12
2023-05-25T00:41:41.794Z,16.15
2023-05-25T00:44:10.046Z,16.18
2023-05-25T00:46:38.967Z,16.05
2023-05-25T00:49:07.099Z,16.04
2023-05-25T00:51:36.552Z,16.02
2023-05-25T00:54:06.206Z,15.75
2023-05-25T00:56:39.423Z,15.71
2023-05-25T00:59:09.263Z,15.79
2023-05-25T01:01:40.414Z,15.81
2023-05-25T01:04:10.685Z,15.76
2023-05-25T01:06:40.848Z,15.76
2023-05-25T01:09:12.464Z,15.69
2023-05-25T01:11:43.726Z,15.72
2023-05-25T01:14:12.315Z,15.59
2023-05-25T01:16:41.589Z,15.64
2023-05-25T01:19:10.884Z,15.64
2023-05-25T01:21:46.095Z,15.52
2023-05-25T01:24:22.469Z,15.66
2023-05-25T01:26:57.263Z,15.69
2023-05-25T01:29:27.319Z,15.73
2023-05-25T01:31:56.733Z,15.56
2023-05-25T01:34:26.115Z,15.51
2023-05-25T01:36:55.992Z,15.50
2023-05-25T01:39:25.206Z,15.56
2023-05-25T01:41:53.223Z,15.65
2023-05-25T01:44:21.977Z,15.75
2023-05-25T01:46:59.863Z,15.63
2023-05-25T01:49:30.665Z,15.49
2023-05-25T01:52:08.600Z,15.35
2023-05-25T01:54:39.638Z,15.44
2023-05-25T01:57:10.991Z,15.49
2023-05-25T01:59:39.777Z,15.46
2023-05-25T02:02:08.748Z,15.44
2023-05-25T02:04:37.040Z,15.32
2023-05-25T02:07:06.861Z,15.21
2023-05-25T02:09:34.854Z,15.33
2023-05-25T02:12:02.853Z,15.20
2023-05-25T02:14:30.980Z,15.32
2023-05-25T02:17:02.131Z,15.31
2023-05-25T02:19:30.376Z,15.22
2023-05-25T02:21:58.354Z,14.98
2023-05-25T02:24:27.803Z,15.04
2023-05-25T02:26:55.829Z,14.85
2023-05-25T02:29:23.811Z,14.68
2023-05-25T02:31:51.863Z,14.93
2023-05-25T02:34:19.896Z,15.06
2023-05-25T02:36:47.847Z,14.85
2023-05-25T02:39:15.812Z,14.78
2023-05-25T02:41:45.117Z,14.84
2023-05-25T02:44:13.075Z,14.93
2023-05-25T02:46:41.077Z,14.69
2023-05-25T02:49:09.064Z,14.90
2023-05-25T02:51:37.132Z,14.93
2023-05-25T02:54:05.276Z,14.98
2023-05-25T02:56:33.345Z,14.92
2023-05-25T02:59:02.619Z,14.84
2023-05-25T03:01:31.190Z,14.79
2023-05-25T03:03:59.574Z,14.74
2023-05-25T03:06:27.802Z,14.89
2023-05-25T03:08:55.716Z,14.87
2023-05-25T03:11:23.768Z,14.86
2023-05-25T03:13:52.873Z,14.99
2023-05-25T03:16:23.389Z,14.89
2023-05-25T03:18:51.463Z,14.67
2023-05-25T03:21:19.439Z,14.68
2023-05-25T03:23:47.397Z,14.74
2023-05-25T03:26:15.788Z,14.84
2023-05-25T03:28:43.873Z,14.77
2023-05-25T03:31:12.222Z,14.78
2023-05-25T03:33:41.495Z,14.88
2023-05-25T03:36:09.972Z,15.07
2023-05-25T03:38:38.151Z,15.07
2023-05-25T03:41:06.436Z,15.01
2023-05-25T03:43:34.411Z,14.98
2023-05-25T03:46:02.497Z,14.96
2023-05-25T03:48:30.808Z,14.94
2023-05-25T03:51:00.183Z,14.95
2023-05-25T03:53:28.229Z,14.94
2023-05-25T03:55:56.690Z,15.03
2023-05-25T03:58:24.701Z,14.98
2023-05-25T04:00:52.968Z,14.94
2023-05-25T04:03:21.826Z,15.05
2023-05-25T04:05:50.127Z,15.14
2023-05-25T04:08:20.738Z,15.18
2023-05-25T04:10:49.065Z,15.16
2023-05-25T04:13:17.248Z,15.02
2023-05-25T04:15:45.444Z,15.18
2023-05-25T04:18:13.668Z,15.22
2023-05-25T04:20:41.959Z,15.37
2023-05-25T04:23:09.973Z,15.41
2023-05-25T04:25:39.342Z,15.37
2023-05-25T04:28:08.573Z,15.42
2023-05-25T04:30:36.870Z,15.49
2023-05-25T04:33:05.050Z,15.67
2023-05-25T04:35:33.161Z,15.81
2023-05-25T04:38:03.114Z,15.88
2023-05-25T04:40:33.266Z,15.87
2023-05-25T04:43:03.543Z,16.07
2023-05-25T04:45:33.316Z,16.22
2023-05-25T04:48:01.670Z,16.33
2023-05-25T04:50:30.174Z,16.41
2023-05-25T04:52:58.499Z,16.47
2023-05-25T04:55:26.486Z,16.66
2023-05-25T04:57:55.239Z,16.80
2023-05-25T05:00:24.966Z,16.90
2023-05-25T05:02:54.094Z,17.03
2023-05-25T05:05:22.206Z,17.18
2023-05-25T05:07:50.195Z,17.31
2023-05-25T05:10:18.582Z,17.22
2023-05-25T05:12:46.654Z,17.41
2023-05-25T05:15:14.805Z,17.38
2023-05-25T05:17:44.133Z,17.30
2023-05-25T05:20:12.764Z,17.29
2023-05-25T05:22:41.244Z,17.40
2023-05-25T05:25:09.917Z,17.47
2023-05-25T05:27:38.008Z,17.42
2023-05-25T05:30:07.697Z,17.47
2023-05-25T05:32:35.753Z,17.59
2023-05-25T05:35:05.608Z,17.44
2023-05-25T05:37:33.535Z,17.22
2023-05-25T05:40:01.526Z,17.29
2023-05-25T05:42:29.568Z,17.62
2023-05-25T05:44:57.611Z,17.49
2023-05-25T05:47:25.707Z,17.43
2023-05-25T05:49:53.774Z,17.24
2023-05-25T05:52:23.615Z,17.30
2023-05-25T05:54:51.559Z,17.54
2023-05-25T05:57:19.593Z,18.00
2023-05-25T05:59:47.668Z,18.19
2023-05-25T06:02:15.603Z,18.29
2023-05-25T06:04:43.623Z,18.37
2023-05-25T06:07:11.735Z,18.49
2023-05-25T06:09:41.100Z,18.57
2023-05-25T06:12:10.157Z,18.59
2023-05-25T06:14:38.173Z,18.69
2023-05-25T06:17:06.788Z,18.65
2023-05-25T06:19:34.916Z,18.54
2023-05-25T06:22:02.920Z,18.58
2023-05-25T06:24:31.562Z,18.84
2023-05-25T06:27:02.324Z,18.86
2023-05-25T06:29:30.587Z,18.80
2023-05-25T06:31:58.594Z,18.89
2023-05-25T06:34:26.820Z,18.57
2023-05-25T06:36:54.839Z,18.75
2023-05-25T06:39:22.883Z,19.09
2023-05-25T06:41:51.362Z,19.21
2023-05-25T06:44:20.748Z,19.22
2023-05-25T06:46:48.913Z,19.50
2023-05-25T06:49:16.844Z,19.57
2023-05-25T06:51:45.143Z,19.60
2023-05-25T06:54:15.036Z,19.76
2023-05-25T06:56:43.068Z,19.87
2023-05-25T06:59:11.140Z,20.20
2023-05-25T07:01:41.200Z,20.36
2023-05-25T07:04:09.271Z,20.53
2023-05-25T07:06:37.296Z,20.68
2023-05-25T07:09:05.486Z,20.69
2023-05-25T07:11:33.496Z,20.56
2023-05-25T07:14:01.484Z,20.76
2023-05-25T07:16:29.595Z,20.89
2023-05-25T07:19:00.431Z,21.03
2023-05-25T07:21:28.690Z,21.26
2023-05-25T07:23:56.931Z,21.29
2023-05-25T07:26:25.791Z,21.59
2023-05-25T07:28:53.768Z,21.70
2023-05-25T07:31:22.514Z,21.76
2023-05-25T07:33:50.902Z,21.40
2023-05-25T07:36:20.571Z,21.06
2023-05-25T07:38:48.878Z,21.64
2023-05-25T07:41:17.159Z,21.81
2023-05-25T07:43:45.601Z,21.85
2023-05-25T07:46:13.670Z,21.94
2023-05-25T07:48:41.616Z,21.88
2023-05-25T07:51:09.790Z,22.15
2023-05-25T07:53:39.108Z,21.71
2023-05-25T07:56:10.458Z,21.67
2023-05-25T07:58:38.704Z,21.24
2023-05-25T08:01:06.895Z,21.21
2023-05-25T08:03:47.974Z,21.50
2023-05-25T08:06:17.978Z,21.29
2023-05-25T08:08:47.418Z,21.43
2023-05-25T08:11:16.442Z,21.47
2023-05-25T08:13:44.479Z,21.59
2023-05-25T08:16:12.422Z,21.75
2023-05-25T08:18:41.022Z,21.98
2023-05-25T08:21:08.995Z,22.07
2023-05-25T08:23:42.600Z,22.43
2023-05-25T08:26:31.325Z,22.36
2023-05-25T08:29:01.744Z,22.30
2023-05-25T08:31:29.670Z,22.36
2023-05-25T08:33:57.831Z,22.41
2023-05-25T08:36:26.062Z,22.48
2023-05-25T08:38:54.382Z,22.60
2023-05-25T08:41:23.718Z,22.70
2023-05-25T08:43:51.789Z,22.87
2023-05-25T08:46:30.353Z,22.86
2023-05-25T08:49:02.192Z,22.89
2023-05-25T08:51:33.952Z,22.73
2023-05-25T08:54:07.564Z,22.44
2023-05-25T08:56:42.499Z,22.53
2023-05-25T08:59:19.285Z,22.87
2023-05-25T09:01:52.619Z,23.23
2023-05-25T09:04:22.227Z,23.41
2023-05-25T09:07:05.639Z,23.74
2023-05-25T09:09:39.683Z,24.04
2023-05-25T09:12:10.209Z,24.18
2023-05-25T09:14:45.382Z,24.39
2023-05-25T09:17:14.447Z,24.59
2023-05-25T09:19:42.704Z,24.76
2023-05-25T09:22:15.957Z,24.93
2023-05-25T09:24:45.691Z,25.11
2023-05-25T09:27:19.220Z,25.21
2023-05-25T09:29:49.008Z,25.35
2023-05-25T09:32:17.350Z,25.51
2023-05-25T09:34:45.685Z,25.57
2023-05-25T09:37:14.796Z,25.66
2023-05-25T09:39:43.696Z,25.52
2023-05-25T09:42:12.008Z,25.73
2023-05-25T09:44:42.767Z,25.91
2023-05-25T09:47:11.134Z,26.18
2023-05-25T09:49:39.561Z,26.50
2023-05-25T09:52:07.971Z,26.34
2023-05-25T09:54:37.590Z,26.21
2023-05-25T09:57:06.406Z,25.60
2023-05-25T09:59:34.371Z,25.49
2023-05-25T10:02:03.815Z,25.64
2023-05-25T10:04:31.852Z,25.37
2023-05-25T10:07:01.972Z,25.29
2023-05-25T10:09:31.284Z,25.16
2023-05-25T10:12:01.451Z,25.12
2023-05-25T10:14:30.913Z,24.80
2023-05-25T10:17:00.638Z,24.86
2023-05-25T10:19:34.615Z,24.88
2023-05-25T10:22:08.224Z,25.22
2023-05-25T10:24:44.335Z,25.21
2023-05-25T10:29:53.984Z,24.71
2023-05-25T10:32:22.359Z,25.12
2023-05-25T10:34:53.475Z,25.38
2023-05-25T10:37:22.053Z,25.40
2023-05-25T10:39:51.813Z,24.99
2023-05-25T10:42:20.029Z,24.67
2023-05-25T10:44:48.196Z,24.39
2023-05-25T10:47:17.464Z,24.18
2023-05-25T10:49:58.231Z,24.35
2023-05-25T10:52:29.820Z,24.15
2023-05-25T10:54:58.794Z,23.97
2023-05-25T10:57:27.305Z,23.76
2023-05-25T11:00:01.720Z,23.66
2023-05-25T11:02:32.190Z,23.48
2023-05-25T11:05:35.907Z,23.33
2023-05-25T11:08:06.456Z,23.19
2023-05-25T11:10:54.972Z,23.08
2023-05-25T11:13:45.507Z,23.20
2023-05-25T11:16:18.772Z,23.14
2023-05-25T11:18:50.575Z,23.01
2023-05-25T11:21:43.040Z,22.84
2023-05-25T11:24:15.250Z,22.87
2023-05-25T11:26:57.896Z,22.86
2023-05-25T11:29:27.237Z,22.80
2023-05-25T11:31:56.381Z,22.65
2023-05-25T11:34:25.936Z,22.51
2023-05-25T11:37:02.212Z,22.66
2023-05-25T11:39:31.560Z,22.63
2023-05-25T11:42:05.192Z,22.61
2023-05-25T11:44:34.596Z,22.44
2023-05-25T11:47:06.057Z,22.50
2023-05-25T11:49:34.156Z,22.49
2023-05-25T11:52:07.101Z,22.50
2023-05-25T11:54:35.428Z,22.73
2023-05-25T11:57:04.803Z,23.13
2023-05-25T11:59:33.728Z,23.39
2023-05-25T12:02:05.540Z,23.54
2023-05-25T12:04:35.350Z,23.65
2023-05-25T12:07:05.522Z,23.77
2023-05-25T12:09:34.153Z,24.02
2023-05-25T12:12:04.152Z,24.35
2023-05-25T12:14:33.160Z,24.48
2023-05-25T12:17:01.327Z,24.72
2023-05-25T12:19:29.482Z,24.71
2023-05-25T12:21:57.921Z,24.71
2023-05-25T12:24:27.296Z,24.90
2023-05-25T12:26:57.647Z,25.19
2023-05-25T12:29:26.387Z,25.44
2023-05-25T12:31:54.465Z,25.43
2023-05-25T12:34:22.762Z,25.59
2023-05-25T12:36:52.859Z,25.73
2023-05-25T12:39:38.810Z,25.67
2023-05-25T12:42:13.513Z,25.16
2023-05-25T12:44:41.699Z,24.82
2023-05-25T12:47:15.088Z,24.95
2023-05-25T12:49:44.588Z,25.07
2023-05-25T12:52:13.350Z,25.04
2023-05-25T12:54:45.493Z,24.71
2023-05-25T12:57:15.209Z,24.57
2023-05-25T12:59:44.704Z,24.46
2023-05-25T13:02:14.299Z,24.52
2023-05-25T13:04:44.663Z,24.39
2023-05-25T13:07:13.062Z,23.44
2023-05-25T13:09:41.087Z,23.49
2023-05-25T13:12:11.298Z,23.48
2023-05-25T13:14:39.341Z,23.35
2023-05-25T13:17:07.377Z,23.21
2023-05-25T13:19:35.428Z,23.26
2023-05-25T13:22:03.527Z,23.24
2023-05-25T13:24:31.550Z,23.06
2023-05-25T13:26:59.565Z,22.93
2023-05-25T13:29:29.008Z,22.84
2023-05-25T13:31:57.091Z,22.82
2023-05-25T13:34:25.164Z,22.77
2023-05-25T13:36:53.206Z,22.38
2023-05-25T13:39:22.337Z,22.17
2023-05-25T13:41:50.349Z,22.23
2023-05-25T13:44:18.421Z,22.06
2023-05-25T13:46:48.603Z,22.07
2023-05-25T13:49:19.587Z,21.89
2023-05-25T13:51:47.731Z,22.01
2023-05-25T13:54:15.722Z,22.02
2023-05-25T13:56:43.796Z,22.11
2023-05-25T13:59:25.584Z,22.04
2023-05-25T14:01:56.211Z,22.02
2023-05-25T14:04:30.175Z,22.04
2023-05-25T14:09:43.401Z,21.75
2023-05-25T14:12:13.558Z,21.51
2023-05-25T14:14:42.307Z,21.31
2023-05-25T14:17:11.673Z,21.11
2023-05-25T14:19:39.721Z,21.00
2023-05-25T14:22:14.094Z,20.83
2023-05-25T14:24:42.683Z,20.71
2023-05-25T14:27:10.853Z,20.66
2023-05-25T14:29:38.930Z,20.68
2023-05-25T14:32:07.247Z,20.66
2023-05-25T14:34:36.647Z,20.76
2023-05-25T14:37:04.838Z,20.84
2023-05-25T14:39:32.837Z,20.40
2023-05-25T14:42:02.540Z,20.95
2023-05-25T14:44:30.694Z,20.90
2023-05-25T14:46:58.893Z,20.80
2023-05-25T14:49:27.777Z,20.82
2023-05-25T14:51:57.166Z,20.85
2023-05-25T14:54:25.278Z,20.99
2023-05-25T14:56:53.254Z,21.00
2023-05-25T14:59:21.320Z,20.93
2023-05-25T15:01:49.426Z,20.93
2023-05-25T15:04:17.440Z,21.00
2023-05-25T15:06:45.570Z,20.55
2023-05-25T15:09:15.918Z,20.62
2023-05-25T15:11:43.893Z,20.44
2023-05-25T15:14:11.994Z,20.28
2023-05-25T15:16:40.263Z,20.40
2023-05-25T15:19:10.664Z,20.53
2023-05-25T15:21:39.762Z,20.52
2023-05-25T15:24:07.951Z,20.42
2023-05-25T15:26:37.325Z,20.52
2023-05-25T15:29:05.315Z,20.50
2023-05-25T15:31:33.412Z,20.62
2023-05-25T15:34:01.924Z,20.64
2023-05-25T15:36:29.939Z,20.45
2023-05-25T15:38:58.022Z,20.45
2023-05-25T15:41:25.988Z,20.56
2023-05-25T15:43:58.519Z,20.57
2023-05-25T15:46:26.959Z,20.58
2023-05-25T15:48:55.091Z,20.68
2023-05-25T15:51:23.283Z,20.76
2023-05-25T15:53:51.294Z,20.69
2023-05-25T15:56:19.327Z,20.65
2023-05-25T15:58:49.441Z,20.70
2023-05-25T16:01:18.920Z,20.47
2023-05-25T16:03:46.997Z,20.68
2023-05-25T16:06:14.940Z,20.68
2023-05-25T16:08:42.842Z,20.62
2023-05-25T16:11:10.830Z,20.62
2023-05-25T16:13:38.964Z,20.59
2023-05-25T16:16:07.689Z,20.63
2023-05-25T16:18:37.334Z,20.63
2023-05-25T16:21:05.700Z,19.63
2023-05-25T16:23:33.678Z,20.38
2023-05-25T16:26:01.609Z,20.29
2023-05-25T16:28:29.704Z,19.96
2023-05-25T16:30:57.661Z,19.67
2023-05-25T16:33:25.802Z,19.77
2023-05-25T16:35:55.148Z,19.76
2023-05-25T16:38:23.120Z,19.57
2023-05-25T16:40:51.150Z,19.42
2023-05-25T16:43:19.205Z,19.34
2023-05-25T16:45:50.044Z,19.46
2023-05-25T16:48:18.033Z,19.50
2023-05-25T16:50:46.057Z,19.64
2023-05-25T16:53:15.416Z,19.81
2023-05-25T16:55:43.819Z,19.84
2023-05-25T16:58:11.974Z,19.78
2023-05-25T17:00:39.983Z,19.89
2023-05-25T17:03:07.995Z,19.75
2023-05-25T17:05:35.996Z,19.79
2023-05-25T17:08:03.869Z,19.78
2023-05-25T17:10:33.169Z,19.86
2023-05-25T17:13:01.245Z,19.53
2023-05-25T17:15:29.198Z,19.70
2023-05-25T17:17:57.121Z,19.78
2023-05-25T17:20:25.199Z,19.86
2023-05-25T17:22:53.257Z,19.73
2023-05-25T17:25:21.385Z,19.54
2023-05-25T17:27:50.760Z,19.75
2023-05-25T17:30:18.758Z,19.83
2023-05-25T17:32:47.115Z,19.77
2023-05-25T17:35:15.070Z,19.70
2023-05-25T17:37:43.091Z,19.70
2023-05-25T17:40:12.117Z,19.49
2023-05-25T17:42:40.862Z,19.46
2023-05-25T17:45:11.855Z,19.57
2023-05-25T17:47:39.932Z,19.55
2023-05-25T17:50:08.495Z,19.48
2023-05-25T17:52:36.361Z,19.50
2023-05-25T17:55:04.458Z,19.44
2023-05-25T17:57:32.451Z,19.36
2023-05-25T18:00:00.389Z,19.28
2023-05-25T18:02:30.534Z,19.37
2023-05-25T18:04:58.577Z,19.46
2023-05-25T18:07:26.548Z,19.42
2023-05-25T18:09:54.510Z,19.31
2023-05-25T18:12:22.524Z,19.23
2023-05-25T18:14:50.431Z,19.18
2023-05-25T18:17:18.555Z,19.16
2023-05-25T18:19:47.933Z,18.90
2023-05-25T18:22:15.944Z,18.75
2023-05-25T18:24:43.940Z,18.88
2023-05-25T18:27:11.868Z,18.85
2023-05-25T18:29:39.793Z,19.01
2023-05-25T18:32:08.261Z,18.69
2023-05-25T18:34:36.221Z,18.66
2023-05-25T18:37:05.807Z,18.35
2023-05-25T18:39:34.011Z,17.85
2023-05-25T18:42:02.603Z,17.93
2023-05-25T18:44:30.557Z,17.88
2023-05-25T18:46:59.143Z,17.92
2023-05-25T18:49:32.733Z,18.00
2023-05-25T18:52:01.482Z,17.89
2023-05-25T18:54:30.792Z,17.71
2023-05-25T18:56:58.783Z,17.59
2023-05-25T18:59:26.717Z,17.82
2023-05-25T19:01:54.727Z,17.90
2023-05-25T19:04:22.783Z,18.04
2023-05-25T19:06:50.941Z,18.17
2023-05-25T19:09:18.872Z,18.37
2023-05-25T19:11:48.225Z,18.34
2023-05-25T19:14:16.188Z,18.31
2023-05-25T19:16:45.959Z,18.44
2023-05-25T19:19:15.252Z,18.47
2023-05-25T19:21:43.163Z,18.54
2023-05-25T19:24:11.193Z,18.55
2023-05-25T19:26:39.310Z,18.62
2023-05-25T19:29:08.645Z,18.69
2023-05-25T19:31:36.727Z,18.58
2023-05-25T19:34:04.720Z,18.47
2023-05-25T19:36:32.917Z,18.53
2023-05-25T19:39:00.914Z,18.48
2023-05-25T19:41:28.886Z,18.54
2023-05-25T19:43:56.889Z,18.62
2023-05-25T19:46:26.307Z,18.66
2023-05-25T19:48:54.329Z,18.66
2023-05-25T19:51:22.403Z,18.68
2023-05-25T19:53:52.083Z,18.56
2023-05-25T19:56:20.048Z,18.44
2023-05-25T19:58:48.165Z,18.52
2023-05-25T20:01:16.237Z,18.57
2023-05-25T20:03:45.933Z,18.61
2023-05-25T20:06:14.070Z,18.65
2023-05-25T20:08:42.089Z,18.63
2023-05-25T20:11:10.313Z,18.62
2023-05-25T20:13:38.269Z,18.69
2023-05-25T20:16:09.995Z,18.57
2023-05-25T20:18:38.067Z,18.62
2023-05-25T20:21:07.327Z,18.55
2023-05-25T20:23:35.462Z,18.55
2023-05-25T20:26:03.446Z,18.61
2023-05-25T20:28:31.429Z,18.57
2023-05-25T20:30:59.385Z,18.47
2023-05-25T20:33:27.347Z,18.48
2023-05-25T20:35:55.327Z,18.52
2023-05-25T20:38:24.664Z,18.50
2023-05-25T20:40:52.652Z,18.50
2023-05-25T20:43:20.590Z,18.45
2023-05-25T20:45:48.841Z,18.55
2023-05-25T20:48:17.265Z,18.47
2023-05-25T20:50:45.582Z,18.50
2023-05-25T20:53:13.657Z,18.48
2023-05-25T20:55:43.154Z,18.49
2023-05-25T20:58:11.366Z,18.47
2023-05-25T21:00:39.337Z,18.47
2023-05-25T21:03:08.656Z,18.49
2023-05-25T21:05:38.150Z,18.35
2023-05-25T21:08:06.134Z,18.41
2023-05-25T21:10:34.137Z,18.33
2023-05-25T21:13:03.496Z,18.31
2023-05-25T21:15:31.803Z,18.34
2023-05-25T21:17:59.806Z,18.29
2023-05-25T21:20:27.843Z,18.24
2023-05-25T21:22:55.856Z,18.18
2023-05-25T21:25:23.933Z,18.18
2023-05-25T21:27:52.199Z,18.16
2023-05-25T21:30:21.691Z,18.24
2023-05-25T21:32:49.665Z,18.21
2023-05-25T21:35:18.234Z,18.23
2023-05-25T21:37:46.224Z,18.25
2023-05-25T21:40:14.564Z,18.19
2023-05-25T21:42:42.511Z,18.09
2023-05-25T21:45:11.053Z,18.04
2023-05-25T21:47:40.448Z,18.08
2023-05-25T21:50:08.796Z,18.03
2023-05-25T21:52:36.815Z,18.03
2023-05-25T21:55:05.079Z,18.05
2023-05-25T21:57:32.995Z,18.05
2023-05-25T22:00:00.963Z,18.04
2023-05-25T22:02:28.962Z,18.00
2023-05-25T22:04:58.429Z,18.04
2023-05-25T22:07:26.530Z,18.06
2023-05-25T22:09:54.500Z,18.03
2023-05-25T22:12:22.474Z,18.11
2023-05-25T22:14:50.455Z,18.09
2023-05-25T22:17:19.145Z,17.85
2023-05-25T22:19:55.312Z,17.98
2023-05-25T22:22:36.606Z,18.03
2023-05-25T22:25:04.751Z,18.11
2023-05-25T22:27:33.033Z,17.99
2023-05-25T22:30:01.533Z,17.97
2023-05-25T22:32:30.807Z,17.98
2023-05-25T22:34:58.849Z,17.96
2023-05-25T22:37:26.800Z,17.95
2023-05-25T22:39:56.129Z,17.88
2023-05-25T22:42:24.157Z,17.96
2023-05-25T22:44:52.435Z,17.60
2023-05-25T22:47:20.429Z,17.64
2023-05-25T22:49:48.393Z,17.58
2023-05-25T22:52:16.522Z,17.65
2023-05-25T22:54:44.468Z,17.69
2023-05-25T22:57:13.808Z,17.68
2023-05-25T22:59:41.709Z,17.65
2023-05-25T23:02:09.785Z,17.37
2023-05-25T23:04:37.810Z,17.32
2023-05-25T23:07:06.245Z,17.20
2023-05-25T23:09:34.241Z,16.86
2023-05-25T23:12:02.357Z,16.70
2023-05-25T23:14:32.617Z,16.23
2023-05-25T23:17:00.579Z,16.64
2023-05-25T23:19:28.619Z,16.81
2023-05-25T23:21:58.583Z,16.67
2023-05-25T23:24:26.557Z,16.83
2023-05-25T23:26:54.537Z,16.98
2023-05-25T23:29:22.528Z,17.12
2023-05-25T23:31:51.948Z,17.26
2023-05-25T23:34:19.976Z,17.29
2023-05-25T23:36:47.901Z,17.32
2023-05-25T23:39:15.931Z,17.29
2023-05-25T23:41:43.899Z,17.34
2023-05-25T23:44:11.820Z,17.30
2023-05-25T23:46:39.896Z,17.36
2023-05-25T23:49:09.263Z,17.30
2023-05-25T23:51:37.604Z,17.10
2023-05-25T23:54:06.873Z,16.91
2023-05-25T23:56:34.794Z,16.75
2023-05-25T23:59:02.728Z,16.47
